createdAt,value
2018-11-23T00:00:19.028Z,39.97
2018-11-23T00:02:48.230Z,41.10
2018-11-23T00:05:16.619Z,36.43
2018-11-23T00:07:45.126Z,37.37
2018-11-23T00:10:15.653Z,36.87
2018-11-23T00:12:44.189Z,40.30
2018-11-23T00:15:20.348Z,39.77
2018-11-23T00:17:48.686Z,38.50
2018-11-23T00:20:20.255Z,37.20
2018-11-23T00:22:48.559Z,38.70
2018-11-23T00:25:18.702Z,39.40
2018-11-23T00:27:47.013Z,43.97
2018-11-23T00:30:17.711Z,40.87
2018-11-23T00:32:46.909Z,43.93
2018-11-23T00:35:16.895Z,43.17
2018-11-23T00:37:45.703Z,44.97
2018-11-23T00:40:18.913Z,42.63
2018-11-23T00:42:47.369Z,43.07
2018-11-23T00:45:17.144Z,43.97
2018-11-23T00:47:46.143Z,42.33
2018-11-23T00:50:16.193Z,46.57
2018-11-23T00:52:45.025Z,46.67
2018-11-23T00:55:14.820Z,45.80
2018-11-23T00:57:43.114Z,47.00
2018-11-23T01:00:22.367Z,48.90
2018-11-23T01:02:50.867Z,51.63
2018-11-23T01:05:19.563Z,49.33
2018-11-23T01:07:48.368Z,45.43
2018-11-23T01:10:17.970Z,51.47
2018-11-23T01:12:47.359Z,50.47
2018-11-23T01:15:15.793Z,56.20
2018-11-23T01:17:44.144Z,54.47
2018-11-23T01:20:15.678Z,52.30
2018-11-23T01:22:44.227Z,52.40
2018-11-23T01:25:13.624Z,56.90
2018-11-23T01:27:42.879Z,56.47
2018-11-23T01:30:20.452Z,56.40
2018-11-23T01:32:49.752Z,57.47
2018-11-23T01:35:18.122Z,60.40
2018-11-23T01:37:46.450Z,57.57
2018-11-23T01:40:17.418Z,58.93
2018-11-23T01:42:46.237Z,62.47
2018-11-23T01:45:15.019Z,64.13
2018-11-23T01:47:43.440Z,56.67
2018-11-23T01:50:13.930Z,61.43
2018-11-23T01:52:42.742Z,64.97
2018-11-23T01:55:12.105Z,65.47
2018-11-23T01:57:41.155Z,67.77
2018-11-23T02:00:12.722Z,64.03
2018-11-23T02:02:41.065Z,74.30
2018-11-23T02:05:09.964Z,67.33
2018-11-23T02:07:38.590Z,66.43
2018-11-23T02:10:07.819Z,71.20
2018-11-23T02:12:36.301Z,70.63
2018-11-23T02:15:05.032Z,71.83
2018-11-23T02:17:33.403Z,71.57
2018-11-23T02:20:01.812Z,67.20
2018-11-23T02:22:30.139Z,76.57
2018-11-23T02:24:58.408Z,77.47
2018-11-23T02:27:26.715Z,85.83
2018-11-23T02:29:56.276Z,84.27
2018-11-23T02:32:24.565Z,80.90
2018-11-23T02:34:52.908Z,83.63
2018-11-23T02:37:21.304Z,78.77
2018-11-23T02:39:49.626Z,85.33
2018-11-23T02:42:17.937Z,81.97
2018-11-23T02:44:46.243Z,93.03
2018-11-23T02:47:15.162Z,80.43
2018-11-23T02:49:43.453Z,83.67
2018-11-23T02:52:11.793Z,89.20
2018-11-23T02:54:40.882Z,87.57
2018-11-23T02:57:09.763Z,82.07
2018-11-23T02:59:38.043Z,91.60
2018-11-23T03:02:06.330Z,88.60
2018-11-23T03:04:34.622Z,84.10
2018-11-23T03:07:02.911Z,89.60
2018-11-23T03:09:32.030Z,82.33
2018-11-23T03:12:00.353Z,89.60
2018-11-23T03:14:28.646Z,90.07
2018-11-23T03:16:56.950Z,83.63
2018-11-23T03:19:25.238Z,86.43
2018-11-23T03:21:53.582Z,82.70
2018-11-23T03:24:23.062Z,85.63
2018-11-23T03:26:51.374Z,82.87
2018-11-23T03:29:19.664Z,93.33
2018-11-23T03:31:47.950Z,90.63
2018-11-23T03:34:17.256Z,89.00
2018-11-23T03:36:45.568Z,90.77
2018-11-23T03:39:13.849Z,91.37
2018-11-23T03:41:42.203Z,93.10
2018-11-23T03:44:10.454Z,87.10
2018-11-23T03:46:38.726Z,96.37
2018-11-23T03:49:06.997Z,86.17
2018-11-23T03:51:35.322Z,92.67
2018-11-23T03:54:03.652Z,93.67
2018-11-23T03:56:31.971Z,93.37
2018-11-23T03:59:00.284Z,92.00
2018-11-23T04:01:28.613Z,90.47
2018-11-23T04:03:57.163Z,82.87
2018-11-23T04:06:25.433Z,87.50
2018-11-23T04:08:53.722Z,91.40
2018-11-23T04:11:22.291Z,90.57
2018-11-23T04:13:50.684Z,91.07
2018-11-23T04:16:18.992Z,92.53
2018-11-23T04:18:47.316Z,96.63
2018-11-23T04:21:15.606Z,89.63
2018-11-23T04:23:43.919Z,86.00
2018-11-23T04:26:12.179Z,94.00
2018-11-23T04:28:40.835Z,94.30
2018-11-23T04:31:09.155Z,90.40
2018-11-23T04:33:37.435Z,83.23
2018-11-23T04:36:05.722Z,87.90
2018-11-23T04:38:34.010Z,89.03
2018-11-23T04:41:02.328Z,90.83
2018-11-23T04:43:30.585Z,97.97
2018-11-23T04:45:58.891Z,94.27
2018-11-23T04:48:27.243Z,91.60
2018-11-23T04:50:55.507Z,100.37
2018-11-23T04:53:23.818Z,96.53
2018-11-23T04:55:52.105Z,90.00
2018-11-23T04:58:20.774Z,83.20
2018-11-23T05:00:49.074Z,89.90
2018-11-23T05:03:17.359Z,91.07
2018-11-23T05:05:45.684Z,93.93
2018-11-23T05:08:14.380Z,87.03
2018-11-23T05:10:42.671Z,94.30
2018-11-23T05:13:10.954Z,89.60
2018-11-23T05:15:39.237Z,91.70
2018-11-23T05:18:07.581Z,90.23
2018-11-23T05:20:35.943Z,84.63
2018-11-23T05:23:04.235Z,88.33
2018-11-23T05:25:32.530Z,90.30
2018-11-23T05:28:00.834Z,90.77
2018-11-23T05:30:29.228Z,88.90
2018-11-23T05:32:57.541Z,85.53
2018-11-23T05:35:25.829Z,90.33
2018-11-23T05:37:54.131Z,88.23
2018-11-23T05:40:22.424Z,86.70
2018-11-23T05:42:50.734Z,89.10
2018-11-23T05:45:20.341Z,83.37
2018-11-23T05:47:48.828Z,88.23
2018-11-23T05:50:23.471Z,84.53
2018-11-23T05:52:52.130Z,85.57
2018-11-23T05:55:20.437Z,85.90
2018-11-23T05:57:48.859Z,87.57
2018-11-23T06:00:19.695Z,89.47
2018-11-23T06:02:47.963Z,88.13
2018-11-23T06:05:16.654Z,89.03
2018-11-23T06:07:45.089Z,90.67
2018-11-23T06:10:15.798Z,87.17
2018-11-23T06:12:44.099Z,89.10
2018-11-23T06:15:16.721Z,89.83
2018-11-23T06:17:45.473Z,81.47
2018-11-23T06:20:15.833Z,84.20
2018-11-23T06:22:45.201Z,89.83
2018-11-23T06:25:20.094Z,85.57
2018-11-23T06:27:48.571Z,85.23
2018-11-23T06:30:16.846Z,89.83
2018-11-23T06:32:56.754Z,92.63
2018-11-23T06:35:25.026Z,81.53
2018-11-23T06:37:53.362Z,81.37
2018-11-23T06:40:21.665Z,94.60
2018-11-23T06:42:50.042Z,85.53
2018-11-23T06:45:18.333Z,88.50
2018-11-23T06:47:46.640Z,89.27
2018-11-23T06:50:15.655Z,91.73
2018-11-23T06:52:43.991Z,90.00
2018-11-23T06:55:13.380Z,85.60
2018-11-23T06:57:42.533Z,92.53
2018-11-23T07:00:14.351Z,94.47
2018-11-23T07:02:43.526Z,91.50
2018-11-23T07:05:12.279Z,87.80
2018-11-23T07:07:40.603Z,89.47
2018-11-23T07:10:09.848Z,87.70
2018-11-23T07:12:39.039Z,88.30
2018-11-23T07:15:10.474Z,84.53
2018-11-23T07:17:39.285Z,82.67
2018-11-23T07:20:09.242Z,88.60
2018-11-23T07:22:37.885Z,94.13
2018-11-23T07:25:07.111Z,88.10
2018-11-23T07:27:35.384Z,91.10
2018-11-23T07:30:07.231Z,89.70
2018-11-23T07:32:35.495Z,88.27
2018-11-23T07:35:03.833Z,92.57
2018-11-23T07:37:32.192Z,95.83
2018-11-23T07:41:12.000Z,83.67
2018-11-23T07:43:40.329Z,87.00
2018-11-23T07:46:08.651Z,99.60
2018-11-23T07:48:36.982Z,90.57
2018-11-23T07:51:05.701Z,98.50
2018-11-23T07:53:34.003Z,91.47
2018-11-23T07:56:02.462Z,89.93
2018-11-23T07:58:30.787Z,87.10
2018-11-23T08:00:59.064Z,91.00
2018-11-23T08:03:27.436Z,88.40
2018-11-23T08:05:56.233Z,91.50
2018-11-23T08:08:24.573Z,91.17
2018-11-23T08:10:52.154Z,85.73
2018-11-23T08:13:20.458Z,86.10
2018-11-23T08:15:49.829Z,86.10
2018-11-23T08:18:18.287Z,84.77
2018-11-23T08:20:46.539Z,90.43
2018-11-23T08:23:14.815Z,88.70
2018-11-23T08:25:43.117Z,85.53
2018-11-23T08:28:11.414Z,92.60
2018-11-23T08:30:39.693Z,86.10
2018-11-23T08:33:08.017Z,128.43
2018-11-23T08:35:37.934Z,99.33
2018-11-23T08:38:06.222Z,89.03
2018-11-23T08:40:34.887Z,87.43
2018-11-23T08:43:03.190Z,90.07
2018-11-23T08:45:31.456Z,85.57
2018-11-23T08:47:59.888Z,88.90
2018-11-23T08:50:29.456Z,87.50
2018-11-23T08:52:57.734Z,84.60
2018-11-23T08:55:26.435Z,90.23
2018-11-23T08:57:54.734Z,87.97
2018-11-23T09:00:24.282Z,89.90
2018-11-23T09:02:54.334Z,93.30
2018-11-23T09:05:22.930Z,85.60
2018-11-23T09:07:53.176Z,81.73
2018-11-23T09:10:22.881Z,85.53
2018-11-23T09:12:54.938Z,84.90
2018-11-23T09:15:23.283Z,93.03
2018-11-23T09:17:51.557Z,88.97
2018-11-23T09:20:20.229Z,83.50
2018-11-23T09:22:48.638Z,86.67
2018-11-23T09:25:18.393Z,74.30
2018-11-23T09:27:46.742Z,71.30
2018-11-23T09:30:18.538Z,78.97
2018-11-23T09:32:47.843Z,76.87
2018-11-23T09:35:16.118Z,79.23
2018-11-23T09:37:44.691Z,85.03
2018-11-23T09:40:15.989Z,78.20
2018-11-23T09:42:44.335Z,71.93
2018-11-23T09:45:16.009Z,73.53
2018-11-23T09:47:45.393Z,73.30
2018-11-23T09:50:15.662Z,71.87
2018-11-23T09:52:44.585Z,69.40
2018-11-23T09:55:12.857Z,71.07
2018-11-23T09:57:41.324Z,65.10
2018-11-23T10:00:16.026Z,73.87
2018-11-23T10:02:44.955Z,74.07
2018-11-23T10:05:14.087Z,72.17
2018-11-23T10:07:43.647Z,81.40
2018-11-23T10:10:12.746Z,73.57
2018-11-23T10:12:41.359Z,71.70
2018-11-23T10:15:10.731Z,71.23
2018-11-23T10:17:38.996Z,66.13
2018-11-23T10:20:10.125Z,68.17
2018-11-23T10:22:38.616Z,70.37
2018-11-23T10:25:08.234Z,62.30
2018-11-23T10:27:36.644Z,66.73
2018-11-23T10:30:04.961Z,69.80
2018-11-23T10:32:33.257Z,59.37
2018-11-23T10:35:01.572Z,65.13
2018-11-23T10:37:29.914Z,63.27
2018-11-23T10:39:58.296Z,77.43
2018-11-23T10:42:26.553Z,74.63
2018-11-23T10:44:54.913Z,58.37
2018-11-23T10:47:23.243Z,62.83
2018-11-23T10:49:52.474Z,55.07
2018-11-23T10:52:20.839Z,57.20
2018-11-23T10:54:49.127Z,57.37
2018-11-23T10:57:17.378Z,57.43
2018-11-23T10:59:45.737Z,60.77
2018-11-23T11:02:19.511Z,55.40
2018-11-23T11:04:56.950Z,54.77
2018-11-23T11:07:25.288Z,59.73
2018-11-23T11:09:54.145Z,51.60
2018-11-23T11:12:22.446Z,51.47
2018-11-23T11:14:50.785Z,51.07
2018-11-23T11:17:19.068Z,53.20
2018-11-23T11:19:47.471Z,52.60
2018-11-23T11:22:15.806Z,51.80
2018-11-23T11:24:44.182Z,48.77
2018-11-23T11:27:12.589Z,51.27
2018-11-23T11:29:40.927Z,50.57
2018-11-23T11:32:09.854Z,50.50
2018-11-23T11:34:38.187Z,54.10
2018-11-23T11:37:06.502Z,54.77
2018-11-23T11:39:34.999Z,51.63
2018-11-23T11:42:03.442Z,49.03
2018-11-23T11:44:31.817Z,53.47
2018-11-23T11:47:00.155Z,51.33
2018-11-23T11:49:28.508Z,54.80
2018-11-23T11:51:56.799Z,54.60
2018-11-23T11:54:25.090Z,54.63
2018-11-23T11:56:53.447Z,54.57
2018-11-23T11:59:21.736Z,53.93
2018-11-23T12:01:50.686Z,56.10
2018-11-23T12:04:18.984Z,54.13
2018-11-23T12:06:47.298Z,60.27
2018-11-23T12:09:15.594Z,56.50
2018-11-23T12:11:43.972Z,54.93
2018-11-23T12:14:12.334Z,55.30
2018-11-23T12:16:41.053Z,56.43
2018-11-23T12:19:10.577Z,60.30
2018-11-23T12:21:39.055Z,56.70
2018-11-23T12:24:07.522Z,59.73
2018-11-23T12:26:35.835Z,62.27
2018-11-23T12:29:04.763Z,60.47
2018-11-23T12:31:33.320Z,56.33
2018-11-23T12:34:01.633Z,59.33
2018-11-23T12:36:29.982Z,64.77
2018-11-23T12:38:58.234Z,67.67
2018-11-23T12:41:26.535Z,65.37
2018-11-23T12:43:54.811Z,70.50
2018-11-23T12:46:23.311Z,70.03
2018-11-23T12:48:51.816Z,63.47
2018-11-23T12:51:20.357Z,68.43
2018-11-23T12:53:49.259Z,72.50
2018-11-23T12:56:17.688Z,72.33
2018-11-23T12:58:46.133Z,88.00
2018-11-23T13:01:14.439Z,72.00
2018-11-23T13:03:42.778Z,71.60
2018-11-23T13:06:11.091Z,72.03
2018-11-23T13:11:14.093Z,76.23
2018-11-23T13:13:42.605Z,74.40
2018-11-23T13:16:10.905Z,78.30
2018-11-23T13:18:39.264Z,75.50
2018-11-23T13:21:07.600Z,85.60
2018-11-23T13:23:36.458Z,75.07
2018-11-23T13:26:04.856Z,94.43
2018-11-23T13:28:33.138Z,92.73
2018-11-23T13:31:01.565Z,82.67
2018-11-23T13:33:29.912Z,83.43
2018-11-23T13:35:58.252Z,79.97
2018-11-23T13:38:26.621Z,80.20
2018-11-23T13:40:55.355Z,84.80
2018-11-23T13:43:23.685Z,92.57
2018-11-23T13:45:52.123Z,83.17
2018-11-23T13:48:20.419Z,85.70
2018-11-23T13:50:48.747Z,84.90
2018-11-23T13:53:17.130Z,98.67
2018-11-23T13:55:46.460Z,90.67
2018-11-23T13:58:14.788Z,93.00
2018-11-23T14:00:43.076Z,93.57
2018-11-23T14:03:12.260Z,86.27
2018-11-23T14:05:40.999Z,95.27
2018-11-23T14:08:09.688Z,97.23
2018-11-23T14:10:38.050Z,103.73
2018-11-23T14:13:11.432Z,96.27
2018-11-23T14:15:34.700Z,94.60
2018-11-23T14:18:03.618Z,87.47
2018-11-23T14:20:32.017Z,102.27
2018-11-23T14:23:00.289Z,99.70
2018-11-23T14:25:30.035Z,96.43
2018-11-23T14:27:58.691Z,106.40
2018-11-23T14:30:31.671Z,93.97
2018-11-23T14:33:00.651Z,99.50
2018-11-23T14:35:30.359Z,105.20
2018-11-23T14:37:59.633Z,97.47
2018-11-23T14:40:29.086Z,110.53
2018-11-23T14:42:57.827Z,98.33
2018-11-23T14:45:31.985Z,103.57
2018-11-23T14:48:07.657Z,104.93
2018-11-23T14:50:40.282Z,98.77
2018-11-23T14:53:08.621Z,107.17
2018-11-23T14:55:36.901Z,110.53
2018-11-23T14:58:05.582Z,113.07
2018-11-23T15:00:35.163Z,103.37
2018-11-23T15:03:04.606Z,106.80
2018-11-23T15:05:33.145Z,118.80
2018-11-23T15:08:01.707Z,107.87
2018-11-23T15:10:31.296Z,106.00
2018-11-23T15:13:00.715Z,105.10
2018-11-23T15:15:30.665Z,106.10
2018-11-23T15:17:59.736Z,105.37
2018-11-23T15:20:30.765Z,112.17
2018-11-23T15:23:02.620Z,108.50
2018-11-23T15:25:31.215Z,108.93
2018-11-23T15:27:59.514Z,107.57
2018-11-23T15:30:30.214Z,103.10
2018-11-23T15:32:58.881Z,109.10
2018-11-23T15:35:28.307Z,107.47
2018-11-23T15:37:57.482Z,106.00
2018-11-23T15:40:27.121Z,109.17
2018-11-23T15:42:58.130Z,106.60
2018-11-23T15:45:27.662Z,105.43
2018-11-23T15:47:56.292Z,106.83
2018-11-23T15:50:26.991Z,107.40
2018-11-23T15:52:56.932Z,103.00
2018-11-23T15:55:27.180Z,108.37
2018-11-23T15:57:57.116Z,97.37
2018-11-23T16:00:29.070Z,111.90
2018-11-23T16:02:57.491Z,110.03
2018-11-23T16:05:25.839Z,111.23
2018-11-23T16:07:55.928Z,105.87
2018-11-23T16:10:26.046Z,109.27
2018-11-23T16:12:55.790Z,109.13
2018-11-23T16:15:24.755Z,99.07
2018-11-23T16:17:53.482Z,104.60
2018-11-23T16:20:24.996Z,99.40
2018-11-23T16:22:54.746Z,103.43
2018-11-23T16:25:23.178Z,100.23
2018-11-23T16:27:53.942Z,103.60
2018-11-23T16:30:24.543Z,104.00
2018-11-23T16:32:54.099Z,101.57
2018-11-23T16:35:23.765Z,105.07
2018-11-23T16:37:52.889Z,100.37
2018-11-23T16:40:22.802Z,115.30
2018-11-23T16:42:51.372Z,104.43
2018-11-23T16:45:23.466Z,106.53
2018-11-23T16:47:52.511Z,108.47
2018-11-23T16:50:20.886Z,106.20
2018-11-23T16:52:49.821Z,100.60
2018-11-23T16:55:19.209Z,98.27
2018-11-23T16:57:48.973Z,99.67
2018-11-23T17:00:28.094Z,104.40
2018-11-23T17:02:58.675Z,106.20
2018-11-23T17:05:29.483Z,103.73
2018-11-23T17:07:57.962Z,113.07
2018-11-23T17:10:26.256Z,103.37
2018-11-23T17:12:54.609Z,103.30
2018-11-23T17:15:24.457Z,111.10
2018-11-23T17:17:52.767Z,99.03
2018-11-23T17:20:23.424Z,95.60
2018-11-23T17:22:52.865Z,103.67
2018-11-23T17:25:22.171Z,102.00
2018-11-23T17:27:51.049Z,107.03
2018-11-23T17:30:20.829Z,101.63
2018-11-23T17:32:49.167Z,106.20
2018-11-23T17:35:18.119Z,99.53
2018-11-23T17:37:46.725Z,111.53
2018-11-23T17:40:17.533Z,107.93
2018-11-23T17:42:46.528Z,104.40
2018-11-23T17:45:17.758Z,106.13
2018-11-23T17:47:46.060Z,99.93
2018-11-23T17:50:16.278Z,106.60
2018-11-23T17:52:44.859Z,105.13
2018-11-23T17:55:13.839Z,100.00
2018-11-23T17:57:42.884Z,101.40
2018-11-23T18:00:12.896Z,100.70
2018-11-23T18:02:41.538Z,95.20
2018-11-23T18:05:11.202Z,104.90
2018-11-23T18:07:39.580Z,105.47
2018-11-23T18:10:10.154Z,107.63
2018-11-23T18:12:38.468Z,106.53
2018-11-23T18:15:09.251Z,100.63
2018-11-23T18:17:37.899Z,102.23
2018-11-23T18:20:09.087Z,93.20
2018-11-23T18:22:37.447Z,106.60
2018-11-23T18:25:08.022Z,106.27
2018-11-23T18:27:36.403Z,115.60
2018-11-23T18:30:05.616Z,100.23
2018-11-23T18:32:34.012Z,103.47
2018-11-23T18:35:03.174Z,95.80
2018-11-23T18:37:31.553Z,100.63
2018-11-23T18:39:59.875Z,100.87
2018-11-23T18:42:28.171Z,99.80
2018-11-23T18:44:56.498Z,93.37
2018-11-23T18:47:24.847Z,95.63
2018-11-23T18:49:53.168Z,90.77
2018-11-23T18:52:21.540Z,96.37
2018-11-23T18:54:49.846Z,89.90
2018-11-23T18:57:18.218Z,95.80
2018-11-23T18:59:46.522Z,93.80
2018-11-23T19:02:14.826Z,98.73
2018-11-23T19:04:43.122Z,95.50
2018-11-23T19:07:11.594Z,94.90
2018-11-23T19:09:40.026Z,95.93
2018-11-23T19:12:08.448Z,96.97
2018-11-23T19:14:36.766Z,95.80
2018-11-23T19:17:05.594Z,96.93
2018-11-23T19:19:33.871Z,102.67
2018-11-23T19:22:02.143Z,94.23
2018-11-23T19:24:30.550Z,98.23
2018-11-23T19:26:58.862Z,93.97
2018-11-23T19:29:27.206Z,97.63
2018-11-23T19:31:55.530Z,94.83
2018-11-23T19:34:24.078Z,90.73
2018-11-23T19:36:52.417Z,98.47
2018-11-23T19:39:20.783Z,102.97
2018-11-23T19:41:49.075Z,102.20
2018-11-23T19:44:17.396Z,94.07
2018-11-23T19:46:45.680Z,107.33
2018-11-23T19:49:13.989Z,95.67
2018-11-23T19:51:42.302Z,97.77
2018-11-23T19:54:10.641Z,89.80
2018-11-23T19:56:38.938Z,93.20
2018-11-23T19:59:07.236Z,94.30
2018-11-23T20:01:35.852Z,101.53
2018-11-23T20:04:04.479Z,99.87
2018-11-23T20:06:32.867Z,98.43
2018-11-23T20:09:01.185Z,100.67
2018-11-23T20:11:29.531Z,102.47
2018-11-23T20:13:57.834Z,98.57
2018-11-23T20:16:26.222Z,99.67
2018-11-23T20:18:54.535Z,105.50
2018-11-23T20:21:22.875Z,93.10
2018-11-23T20:23:51.157Z,99.80
2018-11-23T20:26:19.501Z,102.37
2018-11-23T20:28:47.948Z,96.83
2018-11-23T20:31:16.437Z,98.30
2018-11-23T20:33:44.759Z,95.83
2018-11-23T20:36:13.065Z,97.80
2018-11-23T20:38:41.373Z,96.43
2018-11-23T20:41:10.258Z,94.13
2018-11-23T20:43:38.586Z,94.73
2018-11-23T20:46:06.977Z,90.93
2018-11-23T20:48:35.321Z,96.53
2018-11-23T20:51:03.713Z,94.23
2018-11-23T20:53:32.077Z,90.50
2018-11-23T20:56:00.430Z,93.00
2018-11-23T20:58:28.873Z,93.17
2018-11-23T21:00:57.172Z,95.80
2018-11-23T21:03:25.460Z,95.13
2018-11-23T21:05:54.689Z,99.77
2018-11-23T21:08:23.037Z,87.23
2018-11-23T21:10:51.314Z,91.47
2018-11-23T21:13:19.882Z,87.27
2018-11-23T21:15:48.253Z,92.90
2018-11-23T21:18:16.539Z,94.27
2018-11-23T21:20:44.905Z,93.67
2018-11-23T21:23:13.286Z,88.93
2018-11-23T21:25:41.774Z,94.00
2018-11-23T21:28:10.082Z,93.20
2018-11-23T21:30:38.413Z,96.60
2018-11-23T21:33:06.704Z,93.03
2018-11-23T21:35:35.100Z,95.33
2018-11-23T21:38:03.531Z,95.23
2018-11-23T21:40:31.811Z,88.50
2018-11-23T21:43:00.292Z,92.00
2018-11-23T21:45:28.615Z,85.87
2018-11-23T21:47:56.918Z,103.30
2018-11-23T21:50:25.891Z,84.93
2018-11-23T21:52:53.628Z,85.97
2018-11-23T21:55:23.872Z,89.67
2018-11-23T21:57:53.324Z,89.27
2018-11-23T22:00:21.644Z,91.93
2018-11-23T22:02:49.975Z,101.77
2018-11-23T22:05:18.230Z,92.63
2018-11-23T22:07:46.559Z,92.83
2018-11-23T22:10:15.958Z,91.20
2018-11-23T22:12:44.378Z,93.50
2018-11-23T22:15:15.076Z,95.13
2018-11-23T22:17:43.364Z,87.47
2018-11-23T22:20:15.612Z,90.63
2018-11-23T22:22:43.949Z,95.00
2018-11-23T22:25:13.401Z,92.93
2018-11-23T22:27:41.871Z,96.27
2018-11-23T22:30:13.645Z,100.33
2018-11-23T22:32:42.055Z,99.20
2018-11-23T22:35:11.746Z,100.20
2018-11-23T22:37:40.101Z,98.20
2018-11-23T22:40:10.039Z,97.40
2018-11-23T22:42:38.344Z,99.83
2018-11-23T22:45:08.227Z,99.97
2018-11-23T22:47:36.532Z,94.97
2018-11-23T22:50:06.522Z,105.23
2018-11-23T22:52:34.812Z,106.20
2018-11-23T22:55:03.114Z,101.10
2018-11-23T22:57:31.405Z,109.70
2018-11-23T22:59:59.689Z,102.83
2018-11-23T23:02:27.988Z,101.63
2018-11-23T23:04:56.337Z,109.10
2018-11-23T23:07:24.653Z,105.70
2018-11-23T23:09:52.967Z,100.83
2018-11-23T23:12:21.329Z,96.93
2018-11-23T23:14:49.770Z,93.80
2018-11-23T23:17:18.117Z,103.83
2018-11-23T23:19:46.458Z,105.93
2018-11-23T23:22:14.747Z,102.80
2018-11-23T23:24:43.170Z,103.80
2018-11-23T23:27:11.514Z,97.13
2018-11-23T23:29:39.838Z,98.47
2018-11-23T23:32:08.101Z,100.90
2018-11-23T23:34:36.503Z,100.27
2018-11-23T23:37:04.894Z,96.50
2018-11-23T23:39:33.151Z,106.37
2018-11-23T23:42:01.450Z,103.23
2018-11-23T23:44:29.758Z,96.23
2018-11-23T23:46:58.107Z,108.33
2018-11-23T23:49:26.450Z,107.00
2018-11-23T23:51:54.909Z,106.40
2018-11-23T23:54:23.490Z,102.33
2018-11-23T23:56:52.021Z,103.27
2018-11-23T23:59:20.309Z,98.10
